Great Falls, MT (59401)

10:12 AM MST on February 10, 2016 (GMT -0700)
Great Falls South SIde | | Change Station
CLOSE
Current Station
Personal Weather Station
Location: Great Falls, MT
Elevation: 3399 ft
Nearby Weather Stations

Elev 3399 ft 47.50 °N, 111.27 °W | Updated 20 seconds ago

Mostly Cloudy
Mostly Cloudy
47.6 °F
Feels Like 48 °F
N
0.0
Wind Variable Wind from North
Gusts 0.0 mph

Today
High -- | Low -- °F
--% Chance of Precip.
Yesterday
High -- | Low -- °F
Precip. -- in
Pressure 30.14 in
Visibility 10.0 miles
Clouds Clear
Windchill 48 °F
Dew Point 28 °F
Humidity 47%
Rainfall 0.00 in
Snow Depth Not available.
7:39 AM 5:40 PM
Waxing Crescent, 6% visible
METAR KGTF 101653Z 33009KT 10SM CLR 07/M03 A3010 RMK AO2 SLP207 T00671028
Pressure 30.14 in
Visibility 10.0 miles
Clouds Clear
Windchill 48 °F
Dew Point 28 °F
Humidity 47%
Rainfall 0.00 in
Snow Depth Not available.
7:39 AM 5:40 PM
Waxing Crescent, 6% visible
METAR KGTF 101653Z 33009KT 10SM CLR 07/M03 A3010 RMK AO2 SLP207 T00671028

10-Day Weather Forecast

Almanac

Astronomy

Feb. 10, 2016 Rise Set
Actual Time
Civil Twilight
Nautical Twilight
Astronomical Twilight
Moon
Length of Visible Light
Length of Day
Tomorrow will be .
, % of the Moon is Illuminated

Today's Extremes

State Highs State Lows

Community

WunderPhotos

Upload Photos

1,891,893 photos uploaded!

WunderBlog® & News

Nearby

Air Quality

  Air Quality AQ Index Pollutant
Not available.

Snow Depth

Station Depth Elevation

Earthquake Activity

City Distance Mag. Time & Date
Minimum magnitude displayed is 2.5.

Coastal Water Temperatures

Place Temperature

Stations

Nearby Weather Stations

Station Location Temp. Windchill Dew Point Humidity Wind Precip. Elev Updated Type
                   

Watches & Warnings

There are currently no watches in effect.